D/T METAR WX W/DIR W/SPE G/SPE TEMP DEWP
19/01/20 09:50 EGXW 190950Z AUTO 30007KT 9999 NCD 02/M02 Q1044 WNW (300°) 8.1mph 2°C -2°C
19/01/20 08:50 EGXW 190850Z AUTO 29008KT 9999 NCD 01/M02 Q1043 WNW (290°) 9.2mph 1°C -2°C
19/01/20 07:50 EGXW 190750Z AUTO 30008KT 9999 NCD 01/M02 Q1042 WNW (300°) 9.2mph 1°C -2°C
19/01/20 06:50 EGXW 190650Z AUTO 31007KT 9999 NCD 02/M01 Q1041 NW (310°) 8.1mph 2°C -1°C
19/01/20 05:50 EGXW 190550Z AUTO 29007KT 9999 NCD 02/M01 Q1040 WNW (290°) 8.1mph 2°C -1°C
19/01/20 04:50 EGXW 190450Z AUTO 29007KT 9999 NCD 02/M01 Q1039 WNW (290°) 8.1mph 2°C -1°C
19/01/20 03:50 EGXW 190350Z AUTO 31007KT 9999 NCD 02/M01 Q1039 NW (310°) 8.1mph 2°C -1°C
19/01/20 02:50 EGXW 190250Z AUTO 30007KT 9999 NCD 02/M00 Q1038 WNW (300°) 8.1mph 2°C 0°C
19/01/20 01:50 EGXW 190150Z AUTO 31010KT 9999 NCD 02/M00 Q1038 NW (310°) 11.5mph 2°C 0°C
19/01/20 00:50 EGXW 190050Z AUTO 31008KT 9999 NCD 02/M00 Q1037 NW (310°) 9.2mph 2°C 0°C
18/01/20 23:50 EGXW 182350Z AUTO 31008KT 9999 NCD 03/00 Q1036 NW (310°) 9.2mph 3°C 0°C
18/01/20 22:50 EGXW 182250Z AUTO 30007KT 9999 NCD 03/01 Q1035 WNW (300°) 8.1mph 3°C 1°C
18/01/20 21:50 EGXW 182150Z AUTO 30008KT 9999 NCD 03/01 Q1033 WNW (300°) 9.2mph 3°C 1°C
18/01/20 20:50 EGXW 182050Z AUTO 30006KT 9999 NCD 03/01 Q1033 WNW (300°) 6.9mph 3°C 1°C
18/01/20 19:50 EGXW 181950Z AUTO 32008KT 9999 NCD 03/01 Q1032 NW (320°) 9.2mph 3°C 1°C
18/01/20 18:50 EGXW 181850Z AUTO 32007KT 9999 NCD 04/01 Q1031 NW (320°) 8.1mph 4°C 1°C
18/01/20 17:50 EGXW 181750Z AUTO 28006KT 9999 NCD 05/01 Q1030 W (280°) 6.9mph 5°C 1°C
18/01/20 16:50 EGXW 181650Z AUTO 28008KT 9999 NCD 05/01 Q1029 W (280°) 9.2mph 5°C 1°C
18/01/20 15:50 EGXW 181550Z AUTO 27006KT 9999 NCD 06/01 Q1028 W (270°) 6.9mph 6°C 1°C
18/01/20 14:50 EGXW 181450Z AUTO 29008KT 9999 NCD 07/01 Q1027 WNW (290°) 9.2mph 7°C 1°C
18/01/20 13:50 EGXW 181350Z AUTO 30011KT 9999 NCD 07/01 Q1027 WNW (300°) 12.7mph 7°C 1°C
18/01/20 12:50 EGXW 181250Z AUTO 31011KT 9999 NCD 07/01 Q1027 NW (310°) 12.7mph 7°C 1°C
18/01/20 11:50 EGXW 181150Z AUTO 30010KT 9999 NCD 06/01 Q1026 WNW (300°) 11.5mph 6°C 1°C
18/01/20 10:50 EGXW 181050Z AUTO 25007KT 9999 NCD 04/01 Q1025 WSW (250°) 8.1mph 4°C 1°C
18/01/20 09:50 EGXW 180950Z AUTO 24007KT 9999 NCD 03/01 Q1025 WSW (240°) 8.1mph 3°C 1°C
18/01/20 08:50 EGXW 180850Z AUTO 24008KT 9999 NCD 02/00 Q1024 WSW (240°) 9.2mph 2°C 0°C
18/01/20 07:50 EGXW 180750Z AUTO 23009KT 9999 NCD 01/00 Q1023 SW (230°) 10.4mph 1°C 0°C
18/01/20 06:50 EGXW 180650Z AUTO 23008KT 9999 NCD 02/00 Q1022 SW (230°) 9.2mph 2°C 0°C
18/01/20 05:50 EGXW 180550Z AUTO 24008KT 9999 NCD 02/00 Q1021 WSW (240°) 9.2mph 2°C 0°C
18/01/20 04:50 EGXW 180450Z AUTO 24007KT 9999 NCD 02/00 Q1020 WSW (240°) 8.1mph 2°C 0°C
18/01/20 03:50 EGXW 180350Z AUTO 25007KT 9999 NCD 02/01 Q1019 WSW (250°) 8.1mph 2°C 1°C
18/01/20 02:50 EGXW 180250Z AUTO 26007KT 9999 NCD 03/01 Q1019 W (260°) 8.1mph 3°C 1°C
18/01/20 01:50 EGXW 180150Z AUTO 24007KT 9999 NCD 03/01 Q1018 WSW (240°) 8.1mph 3°C 1°C
18/01/20 00:50 EGXW 180050Z AUTO 25010KT 9999 FEW070/// 03/01 Q1017 WSW (250°) 11.5mph 3°C 1°C
17/01/20 23:50 EGXW 172350Z AUTO 25010KT 9999 BKN060/// BKN100/// 04/02 Q1017 RERA WSW (250°) 11.5mph 4°C 2°C
17/01/20 22:50 EGXW 172250Z AUTO 28010KT 9999 -RA SCT018/// 04/02 Q1016 -RA W (280°) 11.5mph 4°C 2°C
17/01/20 21:50 EGXW 172150Z AUTO 23010KT 9999 FEW029/// 03/01 Q1015 SW (230°) 11.5mph 3°C 1°C
17/01/20 20:50 EGXW 172050Z AUTO 23009KT 9999 NCD 03/01 Q1014 SW (230°) 10.4mph 3°C 1°C
17/01/20 19:50 EGXW 171950Z AUTO 23011KT 9999 NCD 04/02 Q1014 SW (230°) 12.7mph 4°C 2°C
17/01/20 18:50 EGXW 171850Z AUTO 23011KT 9999 NCD 04/02 Q1013 SW (230°) 12.7mph 4°C 2°C
17/01/20 17:50 EGXW 171750Z AUTO 23010KT 9999 FEW120/// 05/02 Q1012 SW (230°) 11.5mph 5°C 2°C
17/01/20 16:50 EGXW 171650Z 24013KT CAVOK 05/02 Q1012 NOSIG RMK BLU BLU WSW (240°) 15.0mph 5°C 2°C
17/01/20 16:20 EGXW 171620Z 24011KT CAVOK 05/02 Q1011 NOSIG RMK BLU BLU WSW (240°) 12.7mph 5°C 2°C
17/01/20 15:50 EGXW 171550Z 25011KT 9999 FEW040 BKN080 05/02 Q1011 NOSIG RMK BLU BLU WSW (250°) 12.7mph 5°C 2°C
17/01/20 15:20 EGXW 171520Z 25010KT 9999 FEW025 SCT050 BKN090 05/02 Q1010 NOSIG RMK BLU BLU WSW (250°) 11.5mph 5°C 2°C
17/01/20 14:50 EGXW 171450Z 27012KT 9999 FEW020 BKN070 05/02 Q1010 RERA NOSIG RMK BLU BLU W (270°) 13.8mph 5°C 2°C
17/01/20 14:20 EGXW 171420Z 28012KT 9999 FEW020 OVC050 05/02 Q1009 TEMPO SCT020 RMK BLU TEMPO WHT W (280°) 13.8mph 5°C 2°C
17/01/20 14:01 EGXW 171401Z 29013KT 9999 -RA FEW010 SCT020 OVC040 05/03 Q1009 BECMG NSW FEW020 RMK WHT BECMG BLU -RA WNW (290°) 15.0mph 5°C 3°C